sensor_id;sensor_type;location;lat;lon;timestamp;temperature;humidity
57410;DHT22;46044;44.738;20.394;2022-08-03T00:01:39;18.00;82.00
57410;DHT22;46044;44.738;20.394;2022-08-03T00:04:05;18.00;82.00
57410;DHT22;46044;44.738;20.394;2022-08-03T00:06:32;18.00;83.00
57410;DHT22;46044;44.738;20.394;2022-08-03T00:08:58;18.00;83.00
57410;DHT22;46044;44.738;20.394;2022-08-03T00:11:23;18.00;83.00
57410;DHT22;46044;44.738;20.394;2022-08-03T00:13:49;18.00;83.00
57410;DHT22;46044;44.738;20.394;2022-08-03T00:16:15;18.00;83.00
57410;DHT22;46044;44.738;20.394;2022-08-03T00:18:41;18.00;83.00
57410;DHT22;46044;44.738;20.394;2022-08-03T00:21:07;18.00;83.00
57410;DHT22;46044;44.738;20.394;2022-08-03T00:23:33;18.00;84.00
57410;DHT22;46044;44.738;20.394;2022-08-03T00:25:59;18.00;84.00
57410;DHT22;46044;44.738;20.394;2022-08-03T00:28:25;18.00;85.00
57410;DHT22;46044;44.738;20.394;2022-08-03T00:30:50;18.00;84.00
57410;DHT22;46044;44.738;20.394;2022-08-03T00:33:16;18.00;85.00
57410;DHT22;46044;44.738;20.394;2022-08-03T00:35:42;18.00;85.00
57410;DHT22;46044;44.738;20.394;2022-08-03T00:38:07;18.00;85.00
57410;DHT22;46044;44.738;20.394;2022-08-03T00:40:33;18.00;86.00
57410;DHT22;46044;44.738;20.394;2022-08-03T00:43:01;18.00;86.00
57410;DHT22;46044;44.738;20.394;2022-08-03T00:45:32;18.00;86.00
57410;DHT22;46044;44.738;20.394;2022-08-03T00:47:58;18.00;86.00
57410;DHT22;46044;44.738;20.394;2022-08-03T00:50:26;18.00;86.00
57410;DHT22;46044;44.738;20.394;2022-08-03T00:52:54;18.00;87.00
57410;DHT22;46044;44.738;20.394;2022-08-03T00:55:21;18.00;87.00
57410;DHT22;46044;44.738;20.394;2022-08-03T00:57:47;18.00;86.00
57410;DHT22;46044;44.738;20.394;2022-08-03T01:00:17;18.00;86.00
57410;DHT22;46044;44.738;20.394;2022-08-03T01:02:43;18.00;86.00
57410;DHT22;46044;44.738;20.394;2022-08-03T01:05:09;18.00;86.00
57410;DHT22;46044;44.738;20.394;2022-08-03T01:10:16;18.00;86.00
57410;DHT22;46044;44.738;20.394;2022-08-03T01:16:03;18.00;87.00
57410;DHT22;46044;44.738;20.394;2022-08-03T01:21:31;18.00;87.00
57410;DHT22;46044;44.738;20.394;2022-08-03T01:32:36;17.00;86.00
57410;DHT22;46044;44.738;20.394;2022-08-03T01:35:11;17.00;86.00
57410;DHT22;46044;44.738;20.394;2022-08-03T01:37:47;17.00;87.00
57410;DHT22;46044;44.738;20.394;2022-08-03T01:40:15;17.00;87.00
57410;DHT22;46044;44.738;20.394;2022-08-03T01:42:43;17.00;87.00
57410;DHT22;46044;44.738;20.394;2022-08-03T01:45:12;17.00;87.00
57410;DHT22;46044;44.738;20.394;2022-08-03T01:47:39;17.00;87.00
57410;DHT22;46044;44.738;20.394;2022-08-03T01:50:06;17.00;87.00
57410;DHT22;46044;44.738;20.394;2022-08-03T01:52:33;17.00;87.00
57410;DHT22;46044;44.738;20.394;2022-08-03T01:55:01;17.00;87.00
57410;DHT22;46044;44.738;20.394;2022-08-03T01:57:28;17.00;87.00
57410;DHT22;46044;44.738;20.394;2022-08-03T01:59:56;17.00;87.00
57410;DHT22;46044;44.738;20.394;2022-08-03T02:02:24;17.00;88.00
57410;DHT22;46044;44.738;20.394;2022-08-03T02:04:52;17.00;88.00
57410;DHT22;46044;44.738;20.394;2022-08-03T02:07:18;17.00;88.00
57410;DHT22;46044;44.738;20.394;2022-08-03T02:09:49;17.00;88.00
57410;DHT22;46044;44.738;20.394;2022-08-03T02:12:16;17.00;88.00
57410;DHT22;46044;44.738;20.394;2022-08-03T02:14:43;17.00;88.00
57410;DHT22;46044;44.738;20.394;2022-08-03T02:17:11;17.00;89.00
57410;DHT22;46044;44.738;20.394;2022-08-03T02:19:39;17.00;89.00
57410;DHT22;46044;44.738;20.394;2022-08-03T02:22:09;17.00;89.00
57410;DHT22;46044;44.738;20.394;2022-08-03T02:24:36;17.00;89.00
57410;DHT22;46044;44.738;20.394;2022-08-03T02:27:04;17.00;89.00
57410;DHT22;46044;44.738;20.394;2022-08-03T02:29:33;17.00;89.00
57410;DHT22;46044;44.738;20.394;2022-08-03T02:32:01;17.00;89.00
57410;DHT22;46044;44.738;20.394;2022-08-03T02:34:28;17.00;90.00
57410;DHT22;46044;44.738;20.394;2022-08-03T02:36:57;17.00;89.00
57410;DHT22;46044;44.738;20.394;2022-08-03T02:39:27;17.00;89.00
57410;DHT22;46044;44.738;20.394;2022-08-03T02:41:56;17.00;89.00
57410;DHT22;46044;44.738;20.394;2022-08-03T02:44:28;17.00;89.00
57410;DHT22;46044;44.738;20.394;2022-08-03T02:46:59;17.00;89.00
57410;DHT22;46044;44.738;20.394;2022-08-03T02:49:26;17.00;90.00
57410;DHT22;46044;44.738;20.394;2022-08-03T02:51:54;17.00;89.00
57410;DHT22;46044;44.738;20.394;2022-08-03T02:54:21;17.00;89.00
57410;DHT22;46044;44.738;20.394;2022-08-03T02:56:49;17.00;89.00
57410;DHT22;46044;44.738;20.394;2022-08-03T02:59:17;17.00;89.00
57410;DHT22;46044;44.738;20.394;2022-08-03T03:01:44;17.00;89.00
57410;DHT22;46044;44.738;20.394;2022-08-03T03:04:11;17.00;89.00
57410;DHT22;46044;44.738;20.394;2022-08-03T03:06:40;17.00;90.00
57410;DHT22;46044;44.738;20.394;2022-08-03T03:09:07;17.00;90.00
57410;DHT22;46044;44.738;20.394;2022-08-03T03:11:35;17.00;90.00
57410;DHT22;46044;44.738;20.394;2022-08-03T03:14:02;17.00;90.00
57410;DHT22;46044;44.738;20.394;2022-08-03T03:16:30;17.00;90.00
57410;DHT22;46044;44.738;20.394;2022-08-03T03:18:56;17.00;90.00
57410;DHT22;46044;44.738;20.394;2022-08-03T03:21:23;17.00;90.00
57410;DHT22;46044;44.738;20.394;2022-08-03T03:23:49;17.00;90.00
57410;DHT22;46044;44.738;20.394;2022-08-03T03:26:16;17.00;90.00
57410;DHT22;46044;44.738;20.394;2022-08-03T03:28:42;17.00;90.00
57410;DHT22;46044;44.738;20.394;2022-08-03T03:31:08;17.00;90.00
57410;DHT22;46044;44.738;20.394;2022-08-03T03:33:35;17.00;91.00
57410;DHT22;46044;44.738;20.394;2022-08-03T03:36:02;17.00;91.00
57410;DHT22;46044;44.738;20.394;2022-08-03T03:38:29;17.00;91.00
57410;DHT22;46044;44.738;20.394;2022-08-03T03:40:55;17.00;91.00
57410;DHT22;46044;44.738;20.394;2022-08-03T03:43:22;17.00;92.00
57410;DHT22;46044;44.738;20.394;2022-08-03T03:45:48;17.00;92.00
57410;DHT22;46044;44.738;20.394;2022-08-03T03:48:14;17.00;92.00
57410;DHT22;46044;44.738;20.394;2022-08-03T03:50:40;17.00;92.00
57410;DHT22;46044;44.738;20.394;2022-08-03T03:53:09;17.00;92.00
57410;DHT22;46044;44.738;20.394;2022-08-03T03:55:38;17.00;92.00
57410;DHT22;46044;44.738;20.394;2022-08-03T03:58:05;17.00;92.00
57410;DHT22;46044;44.738;20.394;2022-08-03T04:00:32;18.00;93.00
57410;DHT22;46044;44.738;20.394;2022-08-03T04:02:58;18.00;93.00
57410;DHT22;46044;44.738;20.394;2022-08-03T04:05:23;18.00;93.00
57410;DHT22;46044;44.738;20.394;2022-08-03T04:08:11;18.00;92.00
57410;DHT22;46044;44.738;20.394;2022-08-03T04:11:13;18.00;91.00
57410;DHT22;46044;44.738;20.394;2022-08-03T04:13:54;19.00;86.00
57410;DHT22;46044;44.738;20.394;2022-08-03T04:16:24;19.00;84.00
57410;DHT22;46044;44.738;20.394;2022-08-03T04:19:01;20.00;83.00
57410;DHT22;46044;44.738;20.394;2022-08-03T04:21:29;20.00;83.00
57410;DHT22;46044;44.738;20.394;2022-08-03T04:23:59;19.00;84.00
57410;DHT22;46044;44.738;20.394;2022-08-03T04:26:32;19.00;85.00
57410;DHT22;46044;44.738;20.394;2022-08-03T04:28:59;20.00;85.00
57410;DHT22;46044;44.738;20.394;2022-08-03T04:31:26;20.00;84.00
57410;DHT22;46044;44.738;20.394;2022-08-03T04:33:52;20.00;83.00
57410;DHT22;46044;44.738;20.394;2022-08-03T04:36:21;21.00;84.00
57410;DHT22;46044;44.738;20.394;2022-08-03T04:39:15;21.00;83.00
57410;DHT22;46044;44.738;20.394;2022-08-03T04:41:44;21.00;84.00
57410;DHT22;46044;44.738;20.394;2022-08-03T04:44:10;22.00;83.00
57410;DHT22;46044;44.738;20.394;2022-08-03T04:46:38;22.00;84.00
57410;DHT22;46044;44.738;20.394;2022-08-03T04:49:05;22.00;84.00
57410;DHT22;46044;44.738;20.394;2022-08-03T04:51:32;23.00;82.00
57410;DHT22;46044;44.738;20.394;2022-08-03T04:54:03;23.00;79.00
57410;DHT22;46044;44.738;20.394;2022-08-03T04:56:28;23.00;78.00
57410;DHT22;46044;44.738;20.394;2022-08-03T04:58:54;23.00;77.00
57410;DHT22;46044;44.738;20.394;2022-08-03T05:01:20;24.00;76.00
57410;DHT22;46044;44.738;20.394;2022-08-03T05:03:47;24.00;77.00
57410;DHT22;46044;44.738;20.394;2022-08-03T05:06:12;24.00;75.00
57410;DHT22;46044;44.738;20.394;2022-08-03T05:08:38;24.00;74.00
57410;DHT22;46044;44.738;20.394;2022-08-03T05:11:04;24.00;73.00
57410;DHT22;46044;44.738;20.394;2022-08-03T05:13:30;24.00;73.00
57410;DHT22;46044;44.738;20.394;2022-08-03T05:15:56;25.00;72.00
57410;DHT22;46044;44.738;20.394;2022-08-03T05:18:22;25.00;70.00
57410;DHT22;46044;44.738;20.394;2022-08-03T05:20:47;25.00;70.00
57410;DHT22;46044;44.738;20.394;2022-08-03T05:23:13;25.00;70.00
57410;DHT22;46044;44.738;20.394;2022-08-03T05:25:40;25.00;69.00
57410;DHT22;46044;44.738;20.394;2022-08-03T05:28:06;26.00;67.00
57410;DHT22;46044;44.738;20.394;2022-08-03T05:30:32;26.00;66.00
57410;DHT22;46044;44.738;20.394;2022-08-03T05:32:57;27.00;63.00
57410;DHT22;46044;44.738;20.394;2022-08-03T05:35:24;28.00;61.00
57410;DHT22;46044;44.738;20.394;2022-08-03T05:37:50;30.00;56.00
57410;DHT22;46044;44.738;20.394;2022-08-03T05:40:16;30.00;53.00
57410;DHT22;46044;44.738;20.394;2022-08-03T05:42:42;30.00;55.00
57410;DHT22;46044;44.738;20.394;2022-08-03T05:45:08;29.00;56.00
57410;DHT22;46044;44.738;20.394;2022-08-03T05:47:41;29.00;56.00
57410;DHT22;46044;44.738;20.394;2022-08-03T05:50:12;29.00;55.00
57410;DHT22;46044;44.738;20.394;2022-08-03T05:52:38;29.00;56.00
57410;DHT22;46044;44.738;20.394;2022-08-03T05:55:07;28.00;57.00
57410;DHT22;46044;44.738;20.394;2022-08-03T05:57:33;28.00;60.00
57410;DHT22;46044;44.738;20.394;2022-08-03T06:00:00;28.00;60.00
57410;DHT22;46044;44.738;20.394;2022-08-03T06:02:26;28.00;60.00
57410;DHT22;46044;44.738;20.394;2022-08-03T06:04:52;28.00;60.00
57410;DHT22;46044;44.738;20.394;2022-08-03T06:07:18;27.00;60.00
57410;DHT22;46044;44.738;20.394;2022-08-03T06:09:44;28.00;59.00
57410;DHT22;46044;44.738;20.394;2022-08-03T06:12:09;28.00;59.00
57410;DHT22;46044;44.738;20.394;2022-08-03T06:14:35;28.00;58.00
57410;DHT22;46044;44.738;20.394;2022-08-03T06:17:01;29.00;58.00
57410;DHT22;46044;44.738;20.394;2022-08-03T06:19:26;28.00;57.00
57410;DHT22;46044;44.738;20.394;2022-08-03T06:21:52;28.00;59.00
57410;DHT22;46044;44.738;20.394;2022-08-03T06:24:18;28.00;60.00
57410;DHT22;46044;44.738;20.394;2022-08-03T06:26:43;28.00;60.00
57410;DHT22;46044;44.738;20.394;2022-08-03T06:29:09;28.00;60.00
57410;DHT22;46044;44.738;20.394;2022-08-03T06:31:35;27.00;60.00
57410;DHT22;46044;44.738;20.394;2022-08-03T06:34:04;27.00;60.00
57410;DHT22;46044;44.738;20.394;2022-08-03T06:36:30;27.00;60.00
57410;DHT22;46044;44.738;20.394;2022-08-03T06:38:59;27.00;60.00
57410;DHT22;46044;44.738;20.394;2022-08-03T06:41:26;28.00;60.00
57410;DHT22;46044;44.738;20.394;2022-08-03T06:43:52;28.00;59.00
57410;DHT22;46044;44.738;20.394;2022-08-03T06:46:18;28.00;60.00
57410;DHT22;46044;44.738;20.394;2022-08-03T06:48:43;27.00;59.00
57410;DHT22;46044;44.738;20.394;2022-08-03T06:51:09;27.00;59.00
57410;DHT22;46044;44.738;20.394;2022-08-03T06:53:35;27.00;60.00
57410;DHT22;46044;44.738;20.394;2022-08-03T06:56:01;28.00;60.00
57410;DHT22;46044;44.738;20.394;2022-08-03T06:58:26;29.00;58.00
57410;DHT22;46044;44.738;20.394;2022-08-03T07:00:52;29.00;56.00
57410;DHT22;46044;44.738;20.394;2022-08-03T07:03:18;29.00;56.00
57410;DHT22;46044;44.738;20.394;2022-08-03T07:05:43;28.00;57.00
57410;DHT22;46044;44.738;20.394;2022-08-03T07:08:13;28.00;58.00
57410;DHT22;46044;44.738;20.394;2022-08-03T07:10:39;28.00;58.00
57410;DHT22;46044;44.738;20.394;2022-08-03T07:13:05;28.00;58.00
57410;DHT22;46044;44.738;20.394;2022-08-03T07:15:31;28.00;58.00
57410;DHT22;46044;44.738;20.394;2022-08-03T07:17:58;28.00;58.00
57410;DHT22;46044;44.738;20.394;2022-08-03T07:20:23;28.00;58.00
57410;DHT22;46044;44.738;20.394;2022-08-03T07:22:49;28.00;58.00
57410;DHT22;46044;44.738;20.394;2022-08-03T07:25:15;28.00;58.00
57410;DHT22;46044;44.738;20.394;2022-08-03T07:27:44;28.00;57.00
57410;DHT22;46044;44.738;20.394;2022-08-03T07:30:11;28.00;57.00
57410;DHT22;46044;44.738;20.394;2022-08-03T07:32:37;28.00;57.00
57410;DHT22;46044;44.738;20.394;2022-08-03T07:35:04;28.00;57.00
57410;DHT22;46044;44.738;20.394;2022-08-03T07:37:31;28.00;57.00
57410;DHT22;46044;44.738;20.394;2022-08-03T07:39:58;29.00;57.00
57410;DHT22;46044;44.738;20.394;2022-08-03T07:42:25;29.00;56.00
57410;DHT22;46044;44.738;20.394;2022-08-03T07:44:51;29.00;56.00
57410;DHT22;46044;44.738;20.394;2022-08-03T07:47:22;29.00;56.00
57410;DHT22;46044;44.738;20.394;2022-08-03T07:49:49;29.00;56.00
57410;DHT22;46044;44.738;20.394;2022-08-03T07:52:15;29.00;56.00
57410;DHT22;46044;44.738;20.394;2022-08-03T07:54:59;29.00;55.00
57410;DHT22;46044;44.738;20.394;2022-08-03T07:57:25;29.00;56.00
57410;DHT22;46044;44.738;20.394;2022-08-03T07:59:50;29.00;56.00
57410;DHT22;46044;44.738;20.394;2022-08-03T08:02:16;29.00;56.00
57410;DHT22;46044;44.738;20.394;2022-08-03T08:04:42;29.00;55.00
57410;DHT22;46044;44.738;20.394;2022-08-03T08:07:07;29.00;55.00
57410;DHT22;46044;44.738;20.394;2022-08-03T08:09:33;29.00;54.00
57410;DHT22;46044;44.738;20.394;2022-08-03T08:11:59;29.00;53.00
57410;DHT22;46044;44.738;20.394;2022-08-03T08:14:25;29.00;54.00
57410;DHT22;46044;44.738;20.394;2022-08-03T08:16:51;29.00;53.00
57410;DHT22;46044;44.738;20.394;2022-08-03T08:19:17;29.00;54.00
57410;DHT22;46044;44.738;20.394;2022-08-03T08:21:43;29.00;53.00
57410;DHT22;46044;44.738;20.394;2022-08-03T08:24:08;29.00;52.00
57410;DHT22;46044;44.738;20.394;2022-08-03T08:26:34;29.00;53.00
57410;DHT22;46044;44.738;20.394;2022-08-03T08:29:00;29.00;53.00
57410;DHT22;46044;44.738;20.394;2022-08-03T08:31:26;29.00;53.00
57410;DHT22;46044;44.738;20.394;2022-08-03T08:33:51;29.00;52.00
57410;DHT22;46044;44.738;20.394;2022-08-03T08:36:17;29.00;52.00
57410;DHT22;46044;44.738;20.394;2022-08-03T08:38:43;29.00;52.00
57410;DHT22;46044;44.738;20.394;2022-08-03T08:41:13;29.00;51.00
57410;DHT22;46044;44.738;20.394;2022-08-03T08:43:39;29.00;52.00
57410;DHT22;46044;44.738;20.394;2022-08-03T08:46:06;29.00;51.00
57410;DHT22;46044;44.738;20.394;2022-08-03T08:48:35;29.00;50.00
57410;DHT22;46044;44.738;20.394;2022-08-03T08:51:04;29.00;50.00
57410;DHT22;46044;44.738;20.394;2022-08-03T08:53:30;29.00;50.00
57410;DHT22;46044;44.738;20.394;2022-08-03T08:55:59;29.00;51.00
57410;DHT22;46044;44.738;20.394;2022-08-03T08:58:36;30.00;50.00
57410;DHT22;46044;44.738;20.394;2022-08-03T09:01:02;30.00;49.00
57410;DHT22;46044;44.738;20.394;2022-08-03T09:03:29;30.00;48.00
57410;DHT22;46044;44.738;20.394;2022-08-03T09:06:00;30.00;48.00
57410;DHT22;46044;44.738;20.394;2022-08-03T09:08:28;30.00;48.00
57410;DHT22;46044;44.738;20.394;2022-08-03T09:10:53;30.00;48.00
57410;DHT22;46044;44.738;20.394;2022-08-03T09:13:19;30.00;46.00
57410;DHT22;46044;44.738;20.394;2022-08-03T09:15:45;30.00;46.00
57410;DHT22;46044;44.738;20.394;2022-08-03T09:18:11;30.00;44.00
57410;DHT22;46044;44.738;20.394;2022-08-03T09:20:38;30.00;46.00
57410;DHT22;46044;44.738;20.394;2022-08-03T09:23:05;30.00;45.00
57410;DHT22;46044;44.738;20.394;2022-08-03T09:25:40;30.00;45.00
57410;DHT22;46044;44.738;20.394;2022-08-03T09:28:17;30.00;46.00
57410;DHT22;46044;44.738;20.394;2022-08-03T09:30:56;30.00;46.00
57410;DHT22;46044;44.738;20.394;2022-08-03T09:33:22;30.00;46.00
57410;DHT22;46044;44.738;20.394;2022-08-03T09:35:48;30.00;46.00
57410;DHT22;46044;44.738;20.394;2022-08-03T09:38:16;30.00;45.00
57410;DHT22;46044;44.738;20.394;2022-08-03T09:40:43;30.00;45.00
57410;DHT22;46044;44.738;20.394;2022-08-03T09:43:10;30.00;46.00
57410;DHT22;46044;44.738;20.394;2022-08-03T09:45:38;30.00;45.00
57410;DHT22;46044;44.738;20.394;2022-08-03T09:48:20;30.00;45.00
57410;DHT22;46044;44.738;20.394;2022-08-03T09:50:48;30.00;44.00
57410;DHT22;46044;44.738;20.394;2022-08-03T09:53:14;30.00;43.00
57410;DHT22;46044;44.738;20.394;2022-08-03T09:58:20;31.00;43.00
57410;DHT22;46044;44.738;20.394;2022-08-03T10:03:20;30.00;43.00
57410;DHT22;46044;44.738;20.394;2022-08-03T10:05:46;30.00;42.00
57410;DHT22;46044;44.738;20.394;2022-08-03T10:08:16;31.00;45.00
57410;DHT22;46044;44.738;20.394;2022-08-03T10:10:43;31.00;44.00
57410;DHT22;46044;44.738;20.394;2022-08-03T10:13:13;31.00;43.00
57410;DHT22;46044;44.738;20.394;2022-08-03T10:15:40;31.00;42.00
57410;DHT22;46044;44.738;20.394;2022-08-03T10:18:06;31.00;42.00
57410;DHT22;46044;44.738;20.394;2022-08-03T10:20:36;31.00;41.00
57410;DHT22;46044;44.738;20.394;2022-08-03T10:23:04;31.00;39.00
57410;DHT22;46044;44.738;20.394;2022-08-03T10:25:33;31.00;38.00
57410;DHT22;46044;44.738;20.394;2022-08-03T10:28:01;31.00;40.00
57410;DHT22;46044;44.738;20.394;2022-08-03T10:30:30;31.00;42.00
57410;DHT22;46044;44.738;20.394;2022-08-03T10:33:04;31.00;43.00
57410;DHT22;46044;44.738;20.394;2022-08-03T10:35:33;31.00;41.00
57410;DHT22;46044;44.738;20.394;2022-08-03T10:38:03;31.00;42.00
57410;DHT22;46044;44.738;20.394;2022-08-03T10:40:33;31.00;42.00
57410;DHT22;46044;44.738;20.394;2022-08-03T10:43:06;31.00;42.00
57410;DHT22;46044;44.738;20.394;2022-08-03T10:45:40;31.00;42.00
57410;DHT22;46044;44.738;20.394;2022-08-03T10:48:07;30.00;42.00
57410;DHT22;46044;44.738;20.394;2022-08-03T10:50:33;31.00;42.00
57410;DHT22;46044;44.738;20.394;2022-08-03T10:53:01;31.00;42.00
57410;DHT22;46044;44.738;20.394;2022-08-03T10:55:32;31.00;42.00
57410;DHT22;46044;44.738;20.394;2022-08-03T10:58:50;31.00;42.00
57410;DHT22;46044;44.738;20.394;2022-08-03T11:01:17;31.00;41.00
57410;DHT22;46044;44.738;20.394;2022-08-03T11:09:13;31.00;42.00
57410;DHT22;46044;44.738;20.394;2022-08-03T11:11:42;31.00;42.00
57410;DHT22;46044;44.738;20.394;2022-08-03T11:16:47;31.00;42.00
57410;DHT22;46044;44.738;20.394;2022-08-03T11:19:18;31.00;42.00
57410;DHT22;46044;44.738;20.394;2022-08-03T11:27:27;31.00;38.00
57410;DHT22;46044;44.738;20.394;2022-08-03T11:35:18;31.00;42.00
57410;DHT22;46044;44.738;20.394;2022-08-03T11:45:33;31.00;39.00
57410;DHT22;46044;44.738;20.394;2022-08-03T11:48:11;31.00;40.00
57410;DHT22;46044;44.738;20.394;2022-08-03T11:50:38;31.00;40.00
57410;DHT22;46044;44.738;20.394;2022-08-03T11:53:05;31.00;41.00
57410;DHT22;46044;44.738;20.394;2022-08-03T11:55:31;31.00;41.00
57410;DHT22;46044;44.738;20.394;2022-08-03T11:58:00;31.00;41.00
57410;DHT22;46044;44.738;20.394;2022-08-03T12:00:30;31.00;41.00
57410;DHT22;46044;44.738;20.394;2022-08-03T12:02:58;31.00;41.00
57410;DHT22;46044;44.738;20.394;2022-08-03T12:05:50;31.00;41.00
57410;DHT22;46044;44.738;20.394;2022-08-03T12:10:53;31.00;40.00
57410;DHT22;46044;44.738;20.394;2022-08-03T12:13:20;31.00;41.00
57410;DHT22;46044;44.738;20.394;2022-08-03T12:15:54;31.00;41.00
57410;DHT22;46044;44.738;20.394;2022-08-03T12:18:22;31.00;41.00
57410;DHT22;46044;44.738;20.394;2022-08-03T12:20:50;31.00;41.00
57410;DHT22;46044;44.738;20.394;2022-08-03T12:23:17;31.00;41.00
57410;DHT22;46044;44.738;20.394;2022-08-03T12:25:44;31.00;41.00
57410;DHT22;46044;44.738;20.394;2022-08-03T12:28:19;31.00;41.00
57410;DHT22;46044;44.738;20.394;2022-08-03T12:30:50;31.00;41.00
57410;DHT22;46044;44.738;20.394;2022-08-03T12:33:24;31.00;42.00
57410;DHT22;46044;44.738;20.394;2022-08-03T12:38:21;31.00;41.00
57410;DHT22;46044;44.738;20.394;2022-08-03T12:41:07;31.00;42.00
57410;DHT22;46044;44.738;20.394;2022-08-03T12:43:36;31.00;42.00
57410;DHT22;46044;44.738;20.394;2022-08-03T12:46:11;31.00;44.00
57410;DHT22;46044;44.738;20.394;2022-08-03T12:48:57;31.00;42.00
57410;DHT22;46044;44.738;20.394;2022-08-03T12:51:23;31.00;39.00
57410;DHT22;46044;44.738;20.394;2022-08-03T12:53:56;32.00;37.00
57410;DHT22;46044;44.738;20.394;2022-08-03T12:56:22;32.00;39.00
57410;DHT22;46044;44.738;20.394;2022-08-03T12:58:49;32.00;39.00
57410;DHT22;46044;44.738;20.394;2022-08-03T13:01:15;32.00;38.00
57410;DHT22;46044;44.738;20.394;2022-08-03T13:03:43;32.00;37.00
57410;DHT22;46044;44.738;20.394;2022-08-03T13:06:17;32.00;37.00
57410;DHT22;46044;44.738;20.394;2022-08-03T13:08:43;32.00;37.00
57410;DHT22;46044;44.738;20.394;2022-08-03T13:11:26;32.00;37.00
57410;DHT22;46044;44.738;20.394;2022-08-03T13:13:53;33.00;37.00
57410;DHT22;46044;44.738;20.394;2022-08-03T13:16:20;33.00;36.00
57410;DHT22;46044;44.738;20.394;2022-08-03T13:18:47;33.00;37.00
57410;DHT22;46044;44.738;20.394;2022-08-03T13:21:14;33.00;36.00
57410;DHT22;46044;44.738;20.394;2022-08-03T13:23:41;33.00;36.00
57410;DHT22;46044;44.738;20.394;2022-08-03T13:26:07;32.00;37.00
57410;DHT22;46044;44.738;20.394;2022-08-03T13:28:33;32.00;37.00
57410;DHT22;46044;44.738;20.394;2022-08-03T13:30:58;32.00;37.00
57410;DHT22;46044;44.738;20.394;2022-08-03T13:33:26;32.00;36.00
57410;DHT22;46044;44.738;20.394;2022-08-03T13:35:52;32.00;37.00
57410;DHT22;46044;44.738;20.394;2022-08-03T13:38:18;32.00;37.00
57410;DHT22;46044;44.738;20.394;2022-08-03T13:40:43;32.00;39.00
57410;DHT22;46044;44.738;20.394;2022-08-03T13:43:09;32.00;37.00
57410;DHT22;46044;44.738;20.394;2022-08-03T13:45:35;32.00;37.00
57410;DHT22;46044;44.738;20.394;2022-08-03T13:48:00;32.00;36.00
57410;DHT22;46044;44.738;20.394;2022-08-03T13:50:27;32.00;38.00
57410;DHT22;46044;44.738;20.394;2022-08-03T13:52:54;33.00;38.00
57410;DHT22;46044;44.738;20.394;2022-08-03T13:55:20;33.00;37.00
57410;DHT22;46044;44.738;20.394;2022-08-03T13:57:45;33.00;36.00
57410;DHT22;46044;44.738;20.394;2022-08-03T14:00:11;33.00;35.00
57410;DHT22;46044;44.738;20.394;2022-08-03T14:02:37;33.00;36.00
57410;DHT22;46044;44.738;20.394;2022-08-03T14:05:03;33.00;36.00
57410;DHT22;46044;44.738;20.394;2022-08-03T14:07:28;33.00;35.00
57410;DHT22;46044;44.738;20.394;2022-08-03T14:09:54;33.00;36.00
57410;DHT22;46044;44.738;20.394;2022-08-03T14:12:21;33.00;37.00
57410;DHT22;46044;44.738;20.394;2022-08-03T14:14:46;33.00;37.00
57410;DHT22;46044;44.738;20.394;2022-08-03T14:17:12;33.00;39.00
57410;DHT22;46044;44.738;20.394;2022-08-03T14:19:38;33.00;36.00
57410;DHT22;46044;44.738;20.394;2022-08-03T14:22:03;33.00;35.00
57410;DHT22;46044;44.738;20.394;2022-08-03T14:24:29;33.00;34.00
57410;DHT22;46044;44.738;20.394;2022-08-03T14:26:54;33.00;35.00
57410;DHT22;46044;44.738;20.394;2022-08-03T14:29:20;33.00;37.00
57410;DHT22;46044;44.738;20.394;2022-08-03T14:31:46;33.00;37.00
57410;DHT22;46044;44.738;20.394;2022-08-03T14:34:11;33.00;36.00
57410;DHT22;46044;44.738;20.394;2022-08-03T14:36:37;33.00;36.00
57410;DHT22;46044;44.738;20.394;2022-08-03T14:39:03;33.00;35.00
57410;DHT22;46044;44.738;20.394;2022-08-03T14:41:30;33.00;35.00
57410;DHT22;46044;44.738;20.394;2022-08-03T14:43:55;33.00;35.00
57410;DHT22;46044;44.738;20.394;2022-08-03T14:46:21;33.00;34.00
57410;DHT22;46044;44.738;20.394;2022-08-03T14:48:47;33.00;34.00
57410;DHT22;46044;44.738;20.394;2022-08-03T14:51:13;33.00;33.00
57410;DHT22;46044;44.738;20.394;2022-08-03T14:53:38;33.00;34.00
57410;DHT22;46044;44.738;20.394;2022-08-03T14:56:04;33.00;34.00
57410;DHT22;46044;44.738;20.394;2022-08-03T14:58:30;33.00;34.00
57410;DHT22;46044;44.738;20.394;2022-08-03T15:00:56;33.00;33.00
57410;DHT22;46044;44.738;20.394;2022-08-03T15:03:23;33.00;33.00
57410;DHT22;46044;44.738;20.394;2022-08-03T15:05:50;33.00;33.00
57410;DHT22;46044;44.738;20.394;2022-08-03T15:08:17;33.00;33.00
57410;DHT22;46044;44.738;20.394;2022-08-03T15:10:43;33.00;33.00
57410;DHT22;46044;44.738;20.394;2022-08-03T15:13:08;33.00;33.00
57410;DHT22;46044;44.738;20.394;2022-08-03T15:15:34;33.00;34.00
57410;DHT22;46044;44.738;20.394;2022-08-03T15:18:00;33.00;33.00
57410;DHT22;46044;44.738;20.394;2022-08-03T15:20:25;33.00;33.00
57410;DHT22;46044;44.738;20.394;2022-08-03T15:22:51;33.00;34.00
57410;DHT22;46044;44.738;20.394;2022-08-03T15:25:17;33.00;34.00
57410;DHT22;46044;44.738;20.394;2022-08-03T15:27:42;33.00;34.00
57410;DHT22;46044;44.738;20.394;2022-08-03T15:30:08;33.00;35.00
57410;DHT22;46044;44.738;20.394;2022-08-03T15:32:35;33.00;35.00
57410;DHT22;46044;44.738;20.394;2022-08-03T15:35:00;33.00;35.00
57410;DHT22;46044;44.738;20.394;2022-08-03T15:37:26;33.00;35.00
57410;DHT22;46044;44.738;20.394;2022-08-03T15:39:52;33.00;36.00
57410;DHT22;46044;44.738;20.394;2022-08-03T15:42:18;33.00;37.00
57410;DHT22;46044;44.738;20.394;2022-08-03T15:44:44;33.00;38.00
57410;DHT22;46044;44.738;20.394;2022-08-03T15:47:10;32.00;40.00
57410;DHT22;46044;44.738;20.394;2022-08-03T15:49:35;32.00;39.00
57410;DHT22;46044;44.738;20.394;2022-08-03T15:52:01;32.00;38.00
57410;DHT22;46044;44.738;20.394;2022-08-03T15:54:27;32.00;38.00
57410;DHT22;46044;44.738;20.394;2022-08-03T15:56:53;32.00;36.00
57410;DHT22;46044;44.738;20.394;2022-08-03T15:59:18;32.00;39.00
57410;DHT22;46044;44.738;20.394;2022-08-03T16:01:45;32.00;37.00
57410;DHT22;46044;44.738;20.394;2022-08-03T16:04:11;32.00;38.00
57410;DHT22;46044;44.738;20.394;2022-08-03T16:06:37;32.00;39.00
57410;DHT22;46044;44.738;20.394;2022-08-03T16:09:06;32.00;38.00
57410;DHT22;46044;44.738;20.394;2022-08-03T16:11:33;32.00;40.00
57410;DHT22;46044;44.738;20.394;2022-08-03T16:13:58;32.00;39.00